createdAt,value
2019-04-28T00:00:42.612Z,1.10
2019-04-28T00:03:10.755Z,1.27
2019-04-28T00:05:36.855Z,1.20
2019-04-28T00:08:03.171Z,2.37
2019-04-28T00:10:29.364Z,1.70
2019-04-28T00:12:55.472Z,1.20
2019-04-28T00:15:21.900Z,1.60
2019-04-28T00:17:48.146Z,1.87
2019-04-28T00:20:31.257Z,1.40
2019-04-28T00:23:16.144Z,1.70
2019-04-28T00:26:01.499Z,2.20
2019-04-28T00:28:27.767Z,1.83
2019-04-28T00:30:53.881Z,2.17
2019-04-28T00:33:20.015Z,2.00
2019-04-28T00:35:46.207Z,1.30
2019-04-28T00:38:13.091Z,1.80
2019-04-28T00:40:40.869Z,2.30
2019-04-28T00:43:07.270Z,2.30
2019-04-28T00:45:33.473Z,2.23
2019-04-28T00:48:00.993Z,1.67
2019-04-28T00:50:27.309Z,1.50
2019-04-28T00:52:53.908Z,1.23
2019-04-28T00:55:20.980Z,1.80
2019-04-28T00:57:47.261Z,1.67
2019-04-28T01:00:15.659Z,1.40
2019-04-28T01:02:41.909Z,2.10
2019-04-28T01:05:11.230Z,1.80
2019-04-28T01:07:37.312Z,1.93
2019-04-28T01:10:04.638Z,1.73
2019-04-28T01:12:31.198Z,1.20
2019-04-28T01:14:59.666Z,1.20
2019-04-28T01:17:44.212Z,1.53
2019-04-28T01:20:19.634Z,0.93
2019-04-28T01:22:45.937Z,1.30
2019-04-28T01:25:12.272Z,1.50
2019-04-28T01:27:40.373Z,1.67
2019-04-28T01:30:11.173Z,1.40
2019-04-28T01:32:39.983Z,1.77
2019-04-28T01:35:06.859Z,2.20
2019-04-28T01:37:33.076Z,1.47
2019-04-28T01:39:59.740Z,1.97
2019-04-28T01:42:25.922Z,1.80
2019-04-28T01:44:52.152Z,1.53
2019-04-28T01:47:18.290Z,1.90
2019-04-28T01:49:44.394Z,2.10
2019-04-28T01:52:10.538Z,2.23
2019-04-28T01:54:36.735Z,1.70
2019-04-28T01:57:03.047Z,1.80
2019-04-28T01:59:30.240Z,1.60
2019-04-28T02:01:56.682Z,1.37
2019-04-28T02:04:22.873Z,1.47
2019-04-28T02:06:49.755Z,2.17
2019-04-28T02:09:16.123Z,1.40
2019-04-28T02:11:42.322Z,1.80
2019-04-28T02:14:09.630Z,1.60
2019-04-28T02:16:35.915Z,1.47
2019-04-28T02:19:02.119Z,1.30
2019-04-28T02:21:35.697Z,1.20
2019-04-28T02:24:20.278Z,1.27
2019-04-28T02:26:46.595Z,1.30
2019-04-28T02:29:12.793Z,1.63
2019-04-28T02:31:41.448Z,1.17
2019-04-28T02:34:06.925Z,1.53
2019-04-28T02:36:33.039Z,1.50
2019-04-28T02:39:00.812Z,1.77
2019-04-28T02:41:27.274Z,1.80
2019-04-28T02:43:53.405Z,1.87
2019-04-28T02:46:20.713Z,1.60
2019-04-28T02:48:47.008Z,2.10
2019-04-28T02:51:17.756Z,1.40
2019-04-28T02:53:44.396Z,1.73
2019-04-28T02:56:11.253Z,1.50
2019-04-28T02:58:37.627Z,1.87
2019-04-28T03:01:12.939Z,1.60
2019-04-28T03:03:31.907Z,1.53
2019-04-28T03:06:01.122Z,1.50
2019-04-28T03:08:26.455Z,1.60
2019-04-28T03:10:52.565Z,1.60
2019-04-28T03:13:20.881Z,1.43
2019-04-28T03:15:47.092Z,1.60
2019-04-28T03:18:13.313Z,1.87
2019-04-28T03:20:41.797Z,2.03
2019-04-28T03:23:09.882Z,2.00
2019-04-28T03:25:37.350Z,2.07
2019-04-28T03:28:05.481Z,2.37
2019-04-28T03:30:54.107Z,2.17
2019-04-28T03:33:25.407Z,2.33
2019-04-28T03:35:53.664Z,2.13
2019-04-28T03:38:17.457Z,2.83
2019-04-28T03:40:43.558Z,2.63
2019-04-28T03:43:10.506Z,2.60
2019-04-28T03:45:56.122Z,2.30
2019-04-28T03:48:22.356Z,2.50
2019-04-28T03:50:51.169Z,2.50
2019-04-28T03:53:16.615Z,2.03
2019-04-28T03:55:42.716Z,2.20
2019-04-28T03:58:10.398Z,2.30
2019-04-28T04:00:36.875Z,2.50
2019-04-28T04:03:03.066Z,2.27
2019-04-28T04:05:30.697Z,2.77
2019-04-28T04:07:57.071Z,2.97
2019-04-28T04:10:30.537Z,2.77
2019-04-28T04:13:01.606Z,2.67
2019-04-28T04:15:49.558Z,3.00
2019-04-28T04:18:16.108Z,2.47
2019-04-28T04:20:42.232Z,2.47
2019-04-28T04:23:11.079Z,2.83
2019-04-28T04:25:36.515Z,2.30
2019-04-28T04:28:03.764Z,3.07
2019-04-28T04:30:31.100Z,3.33
2019-04-28T04:32:57.614Z,2.80
2019-04-28T04:35:23.805Z,2.87
2019-04-28T04:37:50.371Z,2.83
2019-04-28T04:40:16.640Z,2.67
2019-04-28T04:42:42.759Z,3.77
2019-04-28T04:45:10.533Z,3.33
2019-04-28T04:47:36.923Z,3.60
2019-04-28T04:50:04.926Z,2.60
2019-04-28T04:52:31.031Z,3.00
2019-04-28T04:54:57.245Z,3.27
2019-04-28T04:57:23.358Z,4.03
2019-04-28T04:59:50.048Z,3.03
2019-04-28T05:02:26.531Z,3.00
2019-04-28T05:04:50.827Z,3.10
2019-04-28T05:07:17.007Z,2.80
2019-04-28T05:09:43.223Z,2.90
2019-04-28T05:12:09.710Z,2.40
2019-04-28T05:14:35.937Z,3.23
2019-04-28T05:17:02.103Z,2.43
2019-04-28T05:19:29.813Z,3.00
2019-04-28T05:21:56.214Z,3.33
2019-04-28T05:24:40.605Z,3.20
2019-04-28T05:27:06.796Z,2.03
2019-04-28T05:29:32.890Z,2.63
2019-04-28T05:32:02.966Z,3.03
2019-04-28T05:34:27.061Z,2.53
2019-04-28T05:36:53.241Z,2.33
2019-04-28T05:39:19.585Z,2.37
2019-04-28T05:41:45.905Z,2.47
2019-04-28T05:44:12.045Z,3.27
2019-04-28T05:46:40.051Z,2.03
2019-04-28T05:49:10.167Z,2.00
2019-04-28T05:51:41.007Z,2.13
2019-04-28T05:54:14.763Z,2.40
2019-04-28T05:56:57.708Z,2.73
2019-04-28T05:59:42.269Z,2.97
2019-04-28T06:02:12.184Z,2.97
2019-04-28T06:04:40.425Z,2.73
2019-04-28T06:07:09.978Z,2.77
2019-04-28T06:09:39.871Z,2.70
2019-04-28T06:12:10.183Z,2.67
2019-04-28T06:14:36.248Z,2.80
2019-04-28T06:17:04.207Z,3.10
2019-04-28T06:19:30.479Z,2.80
2019-04-28T06:21:56.692Z,2.80
2019-04-28T06:24:22.947Z,3.37
2019-04-28T06:26:49.150Z,2.73
2019-04-28T06:29:15.252Z,2.63
2019-04-28T06:31:41.381Z,2.77
2019-04-28T06:34:07.516Z,2.57
2019-04-28T06:36:33.699Z,2.80
2019-04-28T06:38:59.948Z,2.50
2019-04-28T06:41:26.070Z,3.37
2019-04-28T06:43:52.183Z,3.37
2019-04-28T06:46:18.321Z,4.30
2019-04-28T06:48:44.536Z,3.97
2019-04-28T06:51:10.736Z,4.40
2019-04-28T06:53:36.976Z,4.60
2019-04-28T06:56:03.096Z,4.43
2019-04-28T06:58:29.229Z,5.90
2019-04-28T07:00:55.497Z,4.23
2019-04-28T07:03:23.305Z,4.27
2019-04-28T07:05:49.779Z,3.70
2019-04-28T07:08:15.997Z,2.93
2019-04-28T07:10:42.220Z,3.20
2019-04-28T07:13:08.441Z,3.40
2019-04-28T07:15:34.693Z,3.10
2019-04-28T07:18:00.820Z,4.67
2019-04-28T07:20:37.937Z,3.57
2019-04-28T07:23:04.444Z,3.83
2019-04-28T07:25:30.578Z,3.57
2019-04-28T07:27:56.861Z,4.30
2019-04-28T07:30:23.356Z,4.40
2019-04-28T07:32:49.616Z,4.60
2019-04-28T07:35:15.847Z,4.73
2019-04-28T07:37:41.959Z,4.63
2019-04-28T07:40:08.262Z,4.73
2019-04-28T07:42:34.531Z,4.27
2019-04-28T07:45:00.814Z,4.27
2019-04-28T07:47:27.042Z,5.07
2019-04-28T07:49:53.266Z,3.90
2019-04-28T07:52:21.303Z,5.20
2019-04-28T07:54:47.545Z,5.00
2019-04-28T07:57:13.773Z,4.53
2019-04-28T07:59:40.038Z,4.50
2019-04-28T08:02:06.425Z,4.00
2019-04-28T08:04:32.746Z,4.20
2019-04-28T08:06:58.961Z,4.17
2019-04-28T08:09:25.227Z,4.87
2019-04-28T08:11:51.510Z,5.10
2019-04-28T08:14:19.662Z,5.07
2019-04-28T08:16:45.662Z,4.53
2019-04-28T08:19:11.812Z,4.23
2019-04-28T08:21:37.953Z,3.93
2019-04-28T08:24:04.081Z,4.10
2019-04-28T08:26:30.511Z,3.47
2019-04-28T08:28:56.683Z,3.70
2019-04-28T08:31:24.723Z,3.87
2019-04-28T08:34:02.034Z,3.30
2019-04-28T08:36:23.512Z,4.20
2019-04-28T08:38:49.716Z,4.03
2019-04-28T08:41:15.902Z,3.60
2019-04-28T08:43:42.152Z,3.83
2019-04-28T08:46:08.345Z,3.83
2019-04-28T08:48:34.579Z,4.23
2019-04-28T08:51:00.914Z,4.87
2019-04-28T08:53:27.209Z,5.30
2019-04-28T08:55:53.464Z,4.57
2019-04-28T08:58:19.701Z,4.57
2019-04-28T09:00:45.833Z,4.30
2019-04-28T09:03:12.139Z,4.90
2019-04-28T09:05:38.451Z,4.40
2019-04-28T09:08:04.663Z,4.90
2019-04-28T09:10:30.882Z,4.57
2019-04-28T09:12:57.140Z,4.43
2019-04-28T09:15:23.362Z,4.57
2019-04-28T09:17:49.607Z,4.73
2019-04-28T09:20:15.760Z,4.87
2019-04-28T09:22:41.981Z,4.90
2019-04-28T09:25:08.639Z,4.40
2019-04-28T09:27:42.391Z,4.70
2019-04-28T09:30:08.907Z,4.83
2019-04-28T09:32:35.186Z,5.30
2019-04-28T09:35:01.971Z,5.63
2019-04-28T09:37:28.249Z,5.20
2019-04-28T09:39:56.406Z,6.03
2019-04-28T09:42:30.552Z,5.23
2019-04-28T09:45:01.280Z,5.33
2019-04-28T09:47:27.826Z,5.13
2019-04-28T09:49:54.018Z,5.47
2019-04-28T09:52:20.161Z,5.70
2019-04-28T09:54:46.281Z,5.43
2019-04-28T09:57:12.392Z,5.37
2019-04-28T09:59:38.617Z,5.70
2019-04-28T10:02:04.849Z,5.30
2019-04-28T10:04:40.954Z,5.63
2019-04-28T10:06:59.124Z,5.43
2019-04-28T10:09:25.420Z,5.87
2019-04-28T10:11:51.620Z,4.90
2019-04-28T10:14:18.037Z,5.30
2019-04-28T10:16:44.799Z,5.20
2019-04-28T10:19:10.965Z,4.87
2019-04-28T10:21:37.118Z,5.03
2019-04-28T10:24:03.331Z,4.73
2019-04-28T10:26:29.567Z,4.80
2019-04-28T10:28:55.763Z,5.37
2019-04-28T10:31:21.969Z,5.97
2019-04-28T10:33:50.117Z,5.40
2019-04-28T10:36:16.345Z,5.03
2019-04-28T10:38:44.384Z,5.80
2019-04-28T10:41:12.580Z,5.60
2019-04-28T10:43:38.925Z,6.07
2019-04-28T10:46:05.148Z,5.80
2019-04-28T10:48:31.378Z,6.40
2019-04-28T10:50:57.611Z,6.13
2019-04-28T10:53:23.738Z,6.17
2019-04-28T10:55:49.857Z,6.50
2019-04-28T10:58:16.080Z,7.80
2019-04-28T11:00:42.520Z,7.80
2019-04-28T11:03:08.744Z,7.83
2019-04-28T11:05:39.855Z,8.50
2019-04-28T11:08:10.693Z,9.07
2019-04-28T11:10:36.826Z,9.27
2019-04-28T11:13:03.090Z,9.63
2019-04-28T11:15:31.366Z,10.10
2019-04-28T11:17:57.683Z,8.57
2019-04-28T11:20:25.318Z,9.97
2019-04-28T11:22:51.662Z,9.57
2019-04-28T11:25:17.969Z,9.37
2019-04-28T11:27:44.214Z,9.27
2019-04-28T11:30:10.930Z,9.20
2019-04-28T11:32:39.048Z,10.13
2019-04-28T11:35:21.926Z,9.73
2019-04-28T11:37:47.412Z,9.90
2019-04-28T11:40:13.681Z,10.93
2019-04-28T11:42:39.807Z,10.70
2019-04-28T11:45:06.217Z,11.43
2019-04-28T11:47:32.331Z,10.80
2019-04-28T11:49:58.726Z,10.70
2019-04-28T11:52:24.852Z,10.87
2019-04-28T11:54:51.040Z,10.50
2019-04-28T11:57:17.306Z,11.90
2019-04-28T11:59:43.512Z,10.57
2019-04-28T12:02:10.020Z,10.37
2019-04-28T12:04:36.359Z,9.10
2019-04-28T12:07:02.854Z,9.63
2019-04-28T12:09:39.943Z,8.93
2019-04-28T12:12:16.718Z,8.70
2019-04-28T12:14:50.829Z,8.30
2019-04-28T12:20:12.154Z,8.10
2019-04-28T12:22:38.404Z,8.77
2019-04-28T12:25:05.717Z,8.07
2019-04-28T12:27:32.052Z,7.50
2019-04-28T12:29:58.270Z,8.60
2019-04-28T12:32:24.388Z,7.87
2019-04-28T12:34:50.547Z,8.43
2019-04-28T12:37:16.647Z,8.40
2019-04-28T12:39:42.754Z,8.73
2019-04-28T12:42:09.089Z,8.90
2019-04-28T12:44:35.288Z,8.07
2019-04-28T12:47:01.503Z,7.73
2019-04-28T12:49:47.228Z,8.33
2019-04-28T12:52:14.738Z,8.23
2019-04-28T12:54:40.984Z,8.33
2019-04-28T12:57:07.166Z,8.37
2019-04-28T12:59:41.254Z,8.87
2019-04-28T13:02:09.398Z,7.73
2019-04-28T13:04:43.303Z,8.00
2019-04-28T13:07:09.812Z,8.47
2019-04-28T13:09:36.055Z,8.13
2019-04-28T13:12:02.857Z,8.13
2019-04-28T13:14:28.965Z,8.83
2019-04-28T13:16:55.218Z,7.77
2019-04-28T13:19:21.523Z,8.30
2019-04-28T13:21:47.693Z,8.27
2019-04-28T13:24:13.914Z,8.83
2019-04-28T13:26:40.039Z,8.20
2019-04-28T13:29:06.182Z,7.40
2019-04-28T13:31:32.474Z,6.60
2019-04-28T13:34:00.062Z,6.97
2019-04-28T13:36:26.170Z,6.83
2019-04-28T13:38:52.625Z,6.33
2019-04-28T13:41:18.825Z,6.20
2019-04-28T13:43:45.053Z,7.73
2019-04-28T13:46:11.284Z,7.20
2019-04-28T13:48:37.474Z,6.40
2019-04-28T13:51:03.613Z,6.97
2019-04-28T13:53:29.848Z,7.50
2019-04-28T13:55:57.965Z,7.20
2019-04-28T13:58:28.873Z,6.40
2019-04-28T14:01:13.812Z,6.40
2019-04-28T14:03:48.275Z,6.23
2019-04-28T14:06:27.490Z,6.33
2019-04-28T14:08:44.439Z,7.63
2019-04-28T14:11:10.546Z,7.87
2019-04-28T14:13:36.815Z,6.17
2019-04-28T14:16:03.337Z,6.00
2019-04-28T14:18:29.624Z,5.53
2019-04-28T14:20:56.014Z,6.23
2019-04-28T14:23:22.295Z,6.63
2019-04-28T14:25:48.514Z,7.00
2019-04-28T14:28:14.711Z,7.53
2019-04-28T14:30:40.896Z,6.87
2019-04-28T14:33:07.227Z,7.50
2019-04-28T14:35:33.477Z,7.40
2019-04-28T14:37:59.666Z,6.77
2019-04-28T14:40:25.849Z,7.77
2019-04-28T14:42:52.084Z,8.10
2019-04-28T14:45:18.356Z,7.70
2019-04-28T14:47:44.607Z,7.17
2019-04-28T14:50:11.064Z,6.93
2019-04-28T14:52:37.196Z,6.20
2019-04-28T14:55:06.188Z,6.10
2019-04-28T14:57:32.393Z,5.80
2019-04-28T14:59:58.519Z,6.20
2019-04-28T15:02:35.501Z,4.93
2019-04-28T15:05:21.605Z,4.43
2019-04-28T15:07:49.743Z,5.77
2019-04-28T15:10:24.339Z,6.10
2019-04-28T15:12:50.448Z,6.30
2019-04-28T15:15:19.821Z,7.23
2019-04-28T15:17:44.848Z,7.90
2019-04-28T15:20:11.488Z,8.43
2019-04-28T15:22:37.778Z,8.03
2019-04-28T15:25:04.862Z,7.90
2019-04-28T15:27:30.994Z,6.90
2019-04-28T15:29:57.207Z,6.60
2019-04-28T15:32:23.624Z,6.30
2019-04-28T15:34:49.850Z,5.90
2019-04-28T15:37:16.081Z,6.17
2019-04-28T15:39:42.192Z,5.97
2019-04-28T15:42:08.400Z,6.37
2019-04-28T15:44:34.631Z,6.30
2019-04-28T15:47:00.862Z,6.90
2019-04-28T15:49:27.200Z,6.13
2019-04-28T15:51:53.433Z,6.50
2019-04-28T15:54:19.647Z,4.80
2019-04-28T15:56:46.354Z,5.03
2019-04-28T15:59:12.515Z,5.23
2019-04-28T16:01:38.739Z,5.20
2019-04-28T16:04:04.963Z,5.40
2019-04-28T16:06:31.237Z,5.87
2019-04-28T16:08:57.445Z,5.53
2019-04-28T16:11:23.556Z,4.47
2019-04-28T16:13:49.742Z,5.20
2019-04-28T16:16:15.921Z,5.40
2019-04-28T16:18:42.032Z,5.90
2019-04-28T16:21:08.237Z,5.40
2019-04-28T16:23:34.362Z,4.97
2019-04-28T16:26:00.597Z,6.03
2019-04-28T16:28:26.767Z,8.93
2019-04-28T16:30:53.085Z,6.70
2019-04-28T16:33:19.303Z,5.83
2019-04-28T16:35:45.534Z,13.00
2019-04-28T16:38:11.666Z,5.50
2019-04-28T16:40:38.363Z,5.13
2019-04-28T16:43:05.291Z,4.90
2019-04-28T16:45:31.424Z,10.47
2019-04-28T16:47:57.558Z,5.20
2019-04-28T16:50:23.968Z,4.87
2019-04-28T16:52:50.350Z,8.03
2019-04-28T16:55:21.473Z,7.77
2019-04-28T16:58:01.645Z,5.77
2019-04-28T17:03:03.506Z,64.58
2019-04-28T17:05:29.654Z,6.07
2019-04-28T17:07:55.772Z,5.30
2019-04-28T17:10:22.119Z,6.03
2019-04-28T17:12:48.351Z,5.53
2019-04-28T17:15:14.580Z,5.43
2019-04-28T17:17:40.808Z,6.77
2019-04-28T17:20:07.267Z,5.77
2019-04-28T17:22:33.421Z,6.10
2019-04-28T17:24:59.539Z,5.77
2019-04-28T17:27:26.061Z,6.00
2019-04-28T17:29:52.259Z,6.37
2019-04-28T17:32:18.470Z,5.93
2019-04-28T17:37:13.289Z,4.67
2019-04-28T17:39:39.590Z,5.27
2019-04-28T17:42:07.816Z,5.23
2019-04-28T17:44:34.082Z,5.23
2019-04-28T17:47:00.383Z,4.70
2019-04-28T17:49:31.462Z,5.70
2019-04-28T17:51:57.725Z,4.73
2019-04-28T17:54:23.835Z,5.40
2019-04-28T17:56:49.957Z,5.50
2019-04-28T17:59:16.085Z,5.77
2019-04-28T18:01:44.150Z,5.57
2019-04-28T18:04:24.171Z,6.17
2019-04-28T18:06:55.016Z,6.67
2019-04-28T18:09:21.163Z,5.73
2019-04-28T18:11:47.392Z,6.27
2019-04-28T18:14:13.588Z,6.33
2019-04-28T18:16:58.077Z,5.80
2019-04-28T18:19:25.901Z,6.77
2019-04-28T18:21:52.104Z,6.73
2019-04-28T18:24:18.288Z,6.90
2019-04-28T18:26:44.513Z,7.17
2019-04-28T18:29:10.828Z,6.83
2019-04-28T18:31:55.421Z,7.07
2019-04-28T18:34:29.301Z,7.27
2019-04-28T18:37:00.318Z,7.40
2019-04-28T18:39:31.218Z,6.97
2019-04-28T18:41:59.259Z,7.30
2019-04-28T18:44:25.511Z,7.60
2019-04-28T18:46:51.633Z,6.80
2019-04-28T18:49:17.755Z,7.87
2019-04-28T18:51:43.999Z,7.80
2019-04-28T18:54:10.215Z,8.43
2019-04-28T18:56:36.441Z,8.10
2019-04-28T18:59:02.808Z,8.53
2019-04-28T19:01:30.927Z,8.90
2019-04-28T19:03:57.130Z,8.10
2019-04-28T19:06:23.262Z,7.63
2019-04-28T19:08:51.287Z,7.57
2019-04-28T19:11:35.968Z,7.00
2019-04-28T19:14:04.256Z,7.33
2019-04-28T19:16:48.949Z,6.53
2019-04-28T19:19:17.059Z,7.23
2019-04-28T19:21:45.167Z,6.90
2019-04-28T19:24:11.403Z,6.40
2019-04-28T19:26:37.554Z,6.53
2019-04-28T19:29:03.778Z,6.90
2019-04-28T19:31:31.764Z,6.67
2019-04-28T19:33:58.088Z,6.20
2019-04-28T19:36:24.301Z,6.47
2019-04-28T19:39:02.647Z,7.37
2019-04-28T19:41:18.550Z,6.50
2019-04-28T19:43:44.674Z,7.83
2019-04-28T19:46:12.728Z,7.10
2019-04-28T19:48:38.940Z,7.37
2019-04-28T19:51:05.049Z,8.40
2019-04-28T19:53:31.977Z,7.77
2019-04-28T19:56:00.118Z,7.90
2019-04-28T19:58:34.010Z,8.70
2019-04-28T20:01:18.892Z,8.43
2019-04-28T20:03:45.138Z,8.17
2019-04-28T20:06:11.357Z,8.00
2019-04-28T20:08:37.485Z,8.20
2019-04-28T20:11:03.808Z,8.00
2019-04-28T20:13:31.513Z,7.97
2019-04-28T20:15:57.823Z,7.57
2019-04-28T20:18:23.951Z,7.70
2019-04-28T20:20:50.152Z,8.23
2019-04-28T20:23:16.254Z,7.77
2019-04-28T20:25:42.396Z,8.97
2019-04-28T20:28:08.504Z,8.07
2019-04-28T20:30:34.704Z,8.40
2019-04-28T20:33:07.521Z,9.00
2019-04-28T20:35:30.919Z,9.17
2019-04-28T20:37:58.988Z,8.93
2019-04-28T20:40:29.881Z,9.33
2019-04-28T20:43:06.853Z,8.77
2019-04-28T20:45:33.189Z,9.57
2019-04-28T20:47:59.292Z,10.70
2019-04-28T20:50:25.871Z,10.60
2019-04-28T20:52:52.002Z,10.50
2019-04-28T20:55:18.112Z,9.97
2019-04-28T20:57:44.226Z,10.70
2019-04-28T21:00:10.602Z,10.90
2019-04-28T21:02:36.785Z,10.40
2019-04-28T21:05:04.400Z,10.40
2019-04-28T21:07:30.525Z,10.90
2019-04-28T21:09:56.649Z,10.93
2019-04-28T21:12:22.843Z,10.23
2019-04-28T21:14:49.103Z,10.57
2019-04-28T21:17:15.385Z,10.90
2019-04-28T21:19:41.540Z,9.90
2019-04-28T21:22:07.806Z,10.87
2019-04-28T21:24:33.909Z,11.27
2019-04-28T21:27:00.013Z,10.77
2019-04-28T21:29:26.254Z,10.70
2019-04-28T21:31:52.367Z,10.50
2019-04-28T21:34:18.618Z,10.47
2019-04-28T21:36:44.757Z,12.53
2019-04-28T21:39:10.887Z,11.93
2019-04-28T21:41:36.999Z,10.93
2019-04-28T21:44:07.875Z,12.20
2019-04-28T21:46:38.987Z,11.20
2019-04-28T21:49:06.998Z,11.63
2019-04-28T21:51:33.133Z,11.60
2019-04-28T21:53:59.271Z,11.57
2019-04-28T21:56:25.485Z,12.23
2019-04-28T21:58:51.626Z,12.87
2019-04-28T22:01:20.672Z,12.07
2019-04-28T22:03:46.854Z,11.87
2019-04-28T22:06:13.015Z,12.77
2019-04-28T22:08:39.243Z,12.37
2019-04-28T22:11:05.453Z,13.10
2019-04-28T22:13:31.593Z,12.10
2019-04-28T22:15:57.700Z,11.93
2019-04-28T22:18:24.018Z,12.63
2019-04-28T22:20:50.159Z,12.60
2019-04-28T22:23:18.954Z,13.67
2019-04-28T22:25:45.176Z,13.70
2019-04-28T22:28:11.327Z,13.60
2019-04-28T22:30:37.441Z,13.33
2019-04-28T22:33:03.546Z,12.23
2019-04-28T22:35:29.733Z,14.03
2019-04-28T22:37:55.948Z,12.67
2019-04-28T22:40:22.051Z,11.50
2019-04-28T22:42:48.273Z,12.57
2019-04-28T22:45:14.876Z,12.83
2019-04-28T22:47:41.039Z,11.53
2019-04-28T22:50:33.550Z,11.60
2019-04-28T22:52:59.742Z,11.80
2019-04-28T22:55:26.548Z,12.17
2019-04-28T22:57:54.676Z,12.40
2019-04-28T23:00:23.097Z,12.47
2019-04-28T23:02:49.400Z,13.40
2019-04-28T23:05:15.528Z,13.93
2019-04-28T23:07:41.635Z,13.73
2019-04-28T23:10:09.734Z,14.17
2019-04-28T23:12:35.873Z,13.07
2019-04-28T23:15:03.061Z,13.27
2019-04-28T23:17:29.266Z,13.73
2019-04-28T23:19:55.409Z,13.53
2019-04-28T23:22:26.190Z,11.63
2019-04-28T23:24:52.385Z,12.43
2019-04-28T23:27:18.522Z,12.47
2019-04-28T23:29:44.625Z,13.67
2019-04-28T23:32:11.041Z,13.43
2019-04-28T23:34:37.173Z,13.80
2019-04-28T23:37:03.467Z,13.27
2019-04-28T23:39:29.605Z,12.67
2019-04-28T23:42:00.424Z,13.70
2019-04-28T23:44:26.630Z,13.70
2019-04-28T23:46:57.141Z,13.00
2019-04-28T23:49:27.167Z,13.50
2019-04-28T23:52:13.472Z,13.03
2019-04-28T23:54:41.585Z,14.30
2019-04-28T23:57:07.798Z,13.43
2019-04-28T23:59:33.915Z,15.60
